Afton, California
Current Conditions -  °F | °C
As of 1:53 PM on Wednesday 22 Oct 2014 (Local Time) from KOVE Reporting Station
Clear Clear  
Wind Chill: 21°   Ceiling: Unl
Heat Index: 21°   Visibility: 10mi
Dew Point:   Wind: 5mph
Humidity: 33%   Direction: 150°SSE
Pressure: 30.05"   Gusts: NA
Location:  39.4608°N, 121.937°W
Report Text: KOVE 222053Z AUTO 15004KT 10SM CLR 21/04 A3005 RMK AO2 SLP177 T02110044 58010 $
Loading
Personal Weather Stations






























Interactive Weather Map
Tropical Storm Tracking
New forecast layout! Learn more

10-Day Weather Forecast

Advertisements
Track Severe Weather on mobile